sensor_id;sensor_type;location;lat;lon;timestamp;temperature;humidity
40676;DHT22;26359;48.750;9.314;2023-07-13T00:01:31;21.30;99.90
40676;DHT22;26359;48.750;9.314;2023-07-13T00:03:57;21.30;99.90
40676;DHT22;26359;48.750;9.314;2023-07-13T00:06:23;21.30;99.90
40676;DHT22;26359;48.750;9.314;2023-07-13T00:08:48;21.20;99.90
40676;DHT22;26359;48.750;9.314;2023-07-13T00:11:15;21.20;99.90
40676;DHT22;26359;48.750;9.314;2023-07-13T00:13:42;21.10;99.90
40676;DHT22;26359;48.750;9.314;2023-07-13T00:16:09;21.10;99.90
40676;DHT22;26359;48.750;9.314;2023-07-13T00:18:35;21.10;99.90
40676;DHT22;26359;48.750;9.314;2023-07-13T00:21:01;21.10;99.90
40676;DHT22;26359;48.750;9.314;2023-07-13T00:23:35;21.00;99.90
40676;DHT22;26359;48.750;9.314;2023-07-13T00:26:02;21.00;99.90
40676;DHT22;26359;48.750;9.314;2023-07-13T00:28:28;21.00;99.90
40676;DHT22;26359;48.750;9.314;2023-07-13T00:30:53;20.90;99.90
40676;DHT22;26359;48.750;9.314;2023-07-13T00:33:19;20.90;99.90
40676;DHT22;26359;48.750;9.314;2023-07-13T00:35:45;20.90;99.90
40676;DHT22;26359;48.750;9.314;2023-07-13T00:38:11;20.80;99.90
40676;DHT22;26359;48.750;9.314;2023-07-13T00:40:36;20.70;99.90
40676;DHT22;26359;48.750;9.314;2023-07-13T00:43:02;20.70;99.90
40676;DHT22;26359;48.750;9.314;2023-07-13T00:47:55;20.70;99.90
40676;DHT22;26359;48.750;9.314;2023-07-13T00:50:22;20.70;99.90
40676;DHT22;26359;48.750;9.314;2023-07-13T00:52:52;20.70;99.90
40676;DHT22;26359;48.750;9.314;2023-07-13T00:55:19;20.70;99.90
40676;DHT22;26359;48.750;9.314;2023-07-13T00:57:46;20.60;99.90
40676;DHT22;26359;48.750;9.314;2023-07-13T01:00:12;20.60;99.90
40676;DHT22;26359;48.750;9.314;2023-07-13T01:02:41;20.50;99.90
40676;DHT22;26359;48.750;9.314;2023-07-13T01:05:18;20.50;99.90
40676;DHT22;26359;48.750;9.314;2023-07-13T01:07:45;20.40;99.90
40676;DHT22;26359;48.750;9.314;2023-07-13T01:10:14;20.40;99.90
40676;DHT22;26359;48.750;9.314;2023-07-13T01:12:40;20.40;99.90
40676;DHT22;26359;48.750;9.314;2023-07-13T01:15:48;20.40;99.90
40676;DHT22;26359;48.750;9.314;2023-07-13T01:18:18;20.30;99.90
40676;DHT22;26359;48.750;9.314;2023-07-13T01:21:03;20.30;99.90
40676;DHT22;26359;48.750;9.314;2023-07-13T01:23:30;20.30;99.90
40676;DHT22;26359;48.750;9.314;2023-07-13T01:25:57;20.20;99.90
40676;DHT22;26359;48.750;9.314;2023-07-13T01:28:24;20.20;99.90
40676;DHT22;26359;48.750;9.314;2023-07-13T01:30:53;20.20;99.90
40676;DHT22;26359;48.750;9.314;2023-07-13T01:33:19;20.20;99.90
40676;DHT22;26359;48.750;9.314;2023-07-13T01:35:46;20.10;99.90
40676;DHT22;26359;48.750;9.314;2023-07-13T01:38:13;20.10;99.90
40676;DHT22;26359;48.750;9.314;2023-07-13T01:40:38;20.20;99.90
40676;DHT22;26359;48.750;9.314;2023-07-13T01:43:04;20.10;99.90
40676;DHT22;26359;48.750;9.314;2023-07-13T01:45:30;20.10;99.90
40676;DHT22;26359;48.750;9.314;2023-07-13T01:47:56;20.10;99.90
40676;DHT22;26359;48.750;9.314;2023-07-13T01:50:21;20.00;99.90
40676;DHT22;26359;48.750;9.314;2023-07-13T01:52:47;19.90;99.90
40676;DHT22;26359;48.750;9.314;2023-07-13T01:55:12;19.90;99.90
40676;DHT22;26359;48.750;9.314;2023-07-13T01:57:39;19.80;99.90
40676;DHT22;26359;48.750;9.314;2023-07-13T02:00:05;19.80;99.90
40676;DHT22;26359;48.750;9.314;2023-07-13T02:02:31;19.80;99.90
40676;DHT22;26359;48.750;9.314;2023-07-13T02:04:57;19.70;99.90
40676;DHT22;26359;48.750;9.314;2023-07-13T02:07:23;19.70;99.90
40676;DHT22;26359;48.750;9.314;2023-07-13T02:09:48;19.60;99.90
40676;DHT22;26359;48.750;9.314;2023-07-13T02:12:14;19.60;99.90
40676;DHT22;26359;48.750;9.314;2023-07-13T02:14:39;19.60;99.90
40676;DHT22;26359;48.750;9.314;2023-07-13T02:17:05;19.50;99.90
40676;DHT22;26359;48.750;9.314;2023-07-13T02:19:31;19.50;99.90
40676;DHT22;26359;48.750;9.314;2023-07-13T02:21:57;19.50;99.90
40676;DHT22;26359;48.750;9.314;2023-07-13T02:24:22;19.50;99.90
40676;DHT22;26359;48.750;9.314;2023-07-13T02:26:48;19.50;99.90
40676;DHT22;26359;48.750;9.314;2023-07-13T02:29:13;19.40;99.90
40676;DHT22;26359;48.750;9.314;2023-07-13T02:31:39;19.30;99.90
40676;DHT22;26359;48.750;9.314;2023-07-13T02:34:04;19.30;99.90
40676;DHT22;26359;48.750;9.314;2023-07-13T02:36:31;19.30;99.90
40676;DHT22;26359;48.750;9.314;2023-07-13T02:39:00;19.20;99.90
40676;DHT22;26359;48.750;9.314;2023-07-13T02:41:26;19.10;99.90
40676;DHT22;26359;48.750;9.314;2023-07-13T02:43:52;19.20;99.90
40676;DHT22;26359;48.750;9.314;2023-07-13T02:46:17;19.10;99.90
40676;DHT22;26359;48.750;9.314;2023-07-13T02:48:45;19.10;99.90
40676;DHT22;26359;48.750;9.314;2023-07-13T02:51:11;19.10;99.90
40676;DHT22;26359;48.750;9.314;2023-07-13T02:53:37;19.00;99.90
40676;DHT22;26359;48.750;9.314;2023-07-13T02:56:03;19.00;99.90
40676;DHT22;26359;48.750;9.314;2023-07-13T02:58:30;19.00;99.90
40676;DHT22;26359;48.750;9.314;2023-07-13T03:00:56;18.90;99.90
40676;DHT22;26359;48.750;9.314;2023-07-13T03:03:23;18.90;99.90
40676;DHT22;26359;48.750;9.314;2023-07-13T03:05:58;18.90;99.90
40676;DHT22;26359;48.750;9.314;2023-07-13T03:08:25;18.90;99.90
40676;DHT22;26359;48.750;9.314;2023-07-13T03:10:59;18.80;99.90
40676;DHT22;26359;48.750;9.314;2023-07-13T03:13:25;18.80;99.90
40676;DHT22;26359;48.750;9.314;2023-07-13T03:15:50;18.70;99.90
40676;DHT22;26359;48.750;9.314;2023-07-13T03:18:16;18.80;99.90
40676;DHT22;26359;48.750;9.314;2023-07-13T03:20:41;18.70;99.90
40676;DHT22;26359;48.750;9.314;2023-07-13T03:23:07;18.80;99.90
40676;DHT22;26359;48.750;9.314;2023-07-13T03:25:32;18.70;99.90
40676;DHT22;26359;48.750;9.314;2023-07-13T03:27:58;18.70;99.90
40676;DHT22;26359;48.750;9.314;2023-07-13T03:30:23;18.80;99.90
40676;DHT22;26359;48.750;9.314;2023-07-13T03:32:49;18.80;99.90
40676;DHT22;26359;48.750;9.314;2023-07-13T03:35:14;18.80;99.90
40676;DHT22;26359;48.750;9.314;2023-07-13T03:37:40;18.80;99.90
40676;DHT22;26359;48.750;9.314;2023-07-13T03:40:08;18.80;99.90
40676;DHT22;26359;48.750;9.314;2023-07-13T03:42:34;18.90;99.90
40676;DHT22;26359;48.750;9.314;2023-07-13T03:45:00;18.90;99.90
40676;DHT22;26359;48.750;9.314;2023-07-13T03:47:26;18.90;99.90
40676;DHT22;26359;48.750;9.314;2023-07-13T03:49:51;18.90;99.90
40676;DHT22;26359;48.750;9.314;2023-07-13T03:52:17;19.00;99.90
40676;DHT22;26359;48.750;9.314;2023-07-13T03:54:42;18.90;99.90
40676;DHT22;26359;48.750;9.314;2023-07-13T03:57:08;18.90;99.90
40676;DHT22;26359;48.750;9.314;2023-07-13T03:59:34;19.00;99.90
40676;DHT22;26359;48.750;9.314;2023-07-13T04:02:00;19.00;99.90
40676;DHT22;26359;48.750;9.314;2023-07-13T04:04:25;19.00;99.90
40676;DHT22;26359;48.750;9.314;2023-07-13T04:06:51;19.00;99.90
40676;DHT22;26359;48.750;9.314;2023-07-13T04:09:18;19.00;99.90
40676;DHT22;26359;48.750;9.314;2023-07-13T04:11:44;19.00;99.90
40676;DHT22;26359;48.750;9.314;2023-07-13T04:14:10;19.00;99.90
40676;DHT22;26359;48.750;9.314;2023-07-13T04:16:35;19.00;99.90
40676;DHT22;26359;48.750;9.314;2023-07-13T04:19:01;18.90;99.90
40676;DHT22;26359;48.750;9.314;2023-07-13T04:21:28;18.90;99.90
40676;DHT22;26359;48.750;9.314;2023-07-13T04:23:54;18.90;99.90
40676;DHT22;26359;48.750;9.314;2023-07-13T04:26:19;18.90;99.90
40676;DHT22;26359;48.750;9.314;2023-07-13T04:28:49;19.00;99.90
40676;DHT22;26359;48.750;9.314;2023-07-13T04:31:15;19.10;99.90
40676;DHT22;26359;48.750;9.314;2023-07-13T04:33:41;19.10;99.90
40676;DHT22;26359;48.750;9.314;2023-07-13T04:36:06;19.20;99.90
40676;DHT22;26359;48.750;9.314;2023-07-13T04:38:33;19.10;99.90
40676;DHT22;26359;48.750;9.314;2023-07-13T04:41:00;19.10;99.90
40676;DHT22;26359;48.750;9.314;2023-07-13T04:43:27;19.10;99.90
40676;DHT22;26359;48.750;9.314;2023-07-13T04:45:54;19.20;99.90
40676;DHT22;26359;48.750;9.314;2023-07-13T04:48:20;19.20;99.90
40676;DHT22;26359;48.750;9.314;2023-07-13T04:50:47;19.20;99.90
40676;DHT22;26359;48.750;9.314;2023-07-13T04:53:12;19.20;99.90
40676;DHT22;26359;48.750;9.314;2023-07-13T04:55:38;19.30;99.90
40676;DHT22;26359;48.750;9.314;2023-07-13T04:58:04;19.30;99.90
40676;DHT22;26359;48.750;9.314;2023-07-13T05:00:30;19.20;99.90
40676;DHT22;26359;48.750;9.314;2023-07-13T05:02:57;19.20;99.90
40676;DHT22;26359;48.750;9.314;2023-07-13T05:05:24;19.20;99.90
40676;DHT22;26359;48.750;9.314;2023-07-13T05:07:50;19.30;99.90
40676;DHT22;26359;48.750;9.314;2023-07-13T05:10:16;19.30;99.90
40676;DHT22;26359;48.750;9.314;2023-07-13T05:12:41;19.30;99.90
40676;DHT22;26359;48.750;9.314;2023-07-13T05:15:07;19.30;99.90
40676;DHT22;26359;48.750;9.314;2023-07-13T05:17:33;19.40;99.90
40676;DHT22;26359;48.750;9.314;2023-07-13T05:19:58;19.40;99.90
40676;DHT22;26359;48.750;9.314;2023-07-13T05:22:24;19.40;99.90
40676;DHT22;26359;48.750;9.314;2023-07-13T05:24:50;19.40;99.90
40676;DHT22;26359;48.750;9.314;2023-07-13T05:27:15;19.50;99.90
40676;DHT22;26359;48.750;9.314;2023-07-13T05:29:41;19.40;99.90
40676;DHT22;26359;48.750;9.314;2023-07-13T05:32:07;19.40;99.90
40676;DHT22;26359;48.750;9.314;2023-07-13T05:34:32;19.50;99.90
40676;DHT22;26359;48.750;9.314;2023-07-13T05:36:58;19.50;99.90
40676;DHT22;26359;48.750;9.314;2023-07-13T05:39:23;19.50;99.90
40676;DHT22;26359;48.750;9.314;2023-07-13T05:41:50;19.50;99.90
40676;DHT22;26359;48.750;9.314;2023-07-13T05:44:15;19.50;99.90
40676;DHT22;26359;48.750;9.314;2023-07-13T05:46:41;19.50;99.90
40676;DHT22;26359;48.750;9.314;2023-07-13T05:49:06;19.50;99.90
40676;DHT22;26359;48.750;9.314;2023-07-13T05:51:32;19.40;99.90
40676;DHT22;26359;48.750;9.314;2023-07-13T05:53:57;19.40;99.90
40676;DHT22;26359;48.750;9.314;2023-07-13T05:56:23;19.40;99.90
40676;DHT22;26359;48.750;9.314;2023-07-13T05:58:49;19.40;99.90
40676;DHT22;26359;48.750;9.314;2023-07-13T06:01:22;19.40;99.90
40676;DHT22;26359;48.750;9.314;2023-07-13T06:03:49;19.40;99.90
40676;DHT22;26359;48.750;9.314;2023-07-13T06:06:15;19.40;99.90
40676;DHT22;26359;48.750;9.314;2023-07-13T06:08:41;19.50;99.90
40676;DHT22;26359;48.750;9.314;2023-07-13T06:11:14;19.40;99.90
40676;DHT22;26359;48.750;9.314;2023-07-13T06:13:40;19.50;99.90
40676;DHT22;26359;48.750;9.314;2023-07-13T06:16:06;19.40;99.90
40676;DHT22;26359;48.750;9.314;2023-07-13T06:18:34;19.40;99.90
40676;DHT22;26359;48.750;9.314;2023-07-13T06:21:01;19.40;99.90
40676;DHT22;26359;48.750;9.314;2023-07-13T06:23:26;19.50;99.90
40676;DHT22;26359;48.750;9.314;2023-07-13T06:25:52;19.50;99.90
40676;DHT22;26359;48.750;9.314;2023-07-13T06:28:19;19.60;99.90
40676;DHT22;26359;48.750;9.314;2023-07-13T06:30:44;19.60;99.90
40676;DHT22;26359;48.750;9.314;2023-07-13T06:33:10;19.60;99.90
40676;DHT22;26359;48.750;9.314;2023-07-13T06:35:35;19.70;99.90
40676;DHT22;26359;48.750;9.314;2023-07-13T06:38:01;19.70;99.90
40676;DHT22;26359;48.750;9.314;2023-07-13T06:40:27;19.70;99.90
40676;DHT22;26359;48.750;9.314;2023-07-13T06:42:54;19.70;99.90
40676;DHT22;26359;48.750;9.314;2023-07-13T06:45:19;19.80;99.90
40676;DHT22;26359;48.750;9.314;2023-07-13T06:47:45;19.80;99.90
40676;DHT22;26359;48.750;9.314;2023-07-13T06:50:10;19.80;99.90
40676;DHT22;26359;48.750;9.314;2023-07-13T06:52:36;19.80;99.90
40676;DHT22;26359;48.750;9.314;2023-07-13T06:55:02;19.80;99.90
40676;DHT22;26359;48.750;9.314;2023-07-13T06:57:28;19.80;99.90
40676;DHT22;26359;48.750;9.314;2023-07-13T06:59:53;19.90;99.90
40676;DHT22;26359;48.750;9.314;2023-07-13T07:02:19;19.90;99.90
40676;DHT22;26359;48.750;9.314;2023-07-13T07:04:44;20.00;99.90
40676;DHT22;26359;48.750;9.314;2023-07-13T07:07:10;20.00;99.90
40676;DHT22;26359;48.750;9.314;2023-07-13T07:09:35;20.10;99.90
40676;DHT22;26359;48.750;9.314;2023-07-13T07:12:02;20.10;99.90
40676;DHT22;26359;48.750;9.314;2023-07-13T07:14:27;20.20;99.90
40676;DHT22;26359;48.750;9.314;2023-07-13T07:16:53;20.30;99.90
40676;DHT22;26359;48.750;9.314;2023-07-13T07:19:18;20.30;99.90
40676;DHT22;26359;48.750;9.314;2023-07-13T07:21:44;20.30;99.90
40676;DHT22;26359;48.750;9.314;2023-07-13T07:24:09;20.30;99.90
40676;DHT22;26359;48.750;9.314;2023-07-13T07:26:35;20.30;99.90
40676;DHT22;26359;48.750;9.314;2023-07-13T07:29:00;20.40;99.90
40676;DHT22;26359;48.750;9.314;2023-07-13T07:31:26;20.40;99.90
40676;DHT22;26359;48.750;9.314;2023-07-13T07:33:51;20.50;99.20
40676;DHT22;26359;48.750;9.314;2023-07-13T07:36:17;20.50;99.90
40676;DHT22;26359;48.750;9.314;2023-07-13T07:38:43;20.50;99.80
40676;DHT22;26359;48.750;9.314;2023-07-13T07:41:09;20.50;99.90
40676;DHT22;26359;48.750;9.314;2023-07-13T07:43:35;20.70;99.40
40676;DHT22;26359;48.750;9.314;2023-07-13T07:46:01;20.80;99.40
40676;DHT22;26359;48.750;9.314;2023-07-13T07:48:26;20.90;98.30
40676;DHT22;26359;48.750;9.314;2023-07-13T07:50:52;20.80;98.10
40676;DHT22;26359;48.750;9.314;2023-07-13T07:53:17;20.90;99.10
40676;DHT22;26359;48.750;9.314;2023-07-13T07:55:43;20.90;97.30
40676;DHT22;26359;48.750;9.314;2023-07-13T07:58:09;21.00;96.50
40676;DHT22;26359;48.750;9.314;2023-07-13T08:00:34;21.10;97.60
40676;DHT22;26359;48.750;9.314;2023-07-13T08:03:01;21.00;96.90
40676;DHT22;26359;48.750;9.314;2023-07-13T08:05:27;21.10;96.10
40676;DHT22;26359;48.750;9.314;2023-07-13T08:07:53;21.10;96.60
40676;DHT22;26359;48.750;9.314;2023-07-13T08:10:19;21.20;96.40
40676;DHT22;26359;48.750;9.314;2023-07-13T08:12:44;21.20;96.50
40676;DHT22;26359;48.750;9.314;2023-07-13T08:15:13;21.40;96.30
40676;DHT22;26359;48.750;9.314;2023-07-13T08:17:39;21.30;96.90
40676;DHT22;26359;48.750;9.314;2023-07-13T08:20:05;21.40;96.70
40676;DHT22;26359;48.750;9.314;2023-07-13T08:22:31;21.40;97.80
40676;DHT22;26359;48.750;9.314;2023-07-13T08:24:56;21.40;97.50
40676;DHT22;26359;48.750;9.314;2023-07-13T08:27:26;21.40;97.60
40676;DHT22;26359;48.750;9.314;2023-07-13T08:29:53;21.40;97.90
40676;DHT22;26359;48.750;9.314;2023-07-13T08:32:20;21.50;97.80
40676;DHT22;26359;48.750;9.314;2023-07-13T08:34:45;21.60;96.90
40676;DHT22;26359;48.750;9.314;2023-07-13T08:37:11;21.70;96.70
40676;DHT22;26359;48.750;9.314;2023-07-13T08:39:37;21.70;96.90
40676;DHT22;26359;48.750;9.314;2023-07-13T08:47:22;22.00;95.70
40676;DHT22;26359;48.750;9.314;2023-07-13T08:49:49;22.00;96.60
40676;DHT22;26359;48.750;9.314;2023-07-13T08:52:28;22.00;96.50
40676;DHT22;26359;48.750;9.314;2023-07-13T08:54:56;22.10;96.80
40676;DHT22;26359;48.750;9.314;2023-07-13T08:57:27;22.20;95.90
40676;DHT22;26359;48.750;9.314;2023-07-13T08:59:55;22.30;95.70
40676;DHT22;26359;48.750;9.314;2023-07-13T09:02:48;22.30;95.70
40676;DHT22;26359;48.750;9.314;2023-07-13T09:08:29;22.50;95.00
40676;DHT22;26359;48.750;9.314;2023-07-13T09:11:25;22.60;95.40
40676;DHT22;26359;48.750;9.314;2023-07-13T09:13:58;22.70;95.20
40676;DHT22;26359;48.750;9.314;2023-07-13T09:16:25;22.80;96.50
40676;DHT22;26359;48.750;9.314;2023-07-13T09:18:54;23.00;95.20
40676;DHT22;26359;48.750;9.314;2023-07-13T09:21:29;23.00;96.00
40676;DHT22;26359;48.750;9.314;2023-07-13T09:26:59;23.20;94.90
40676;DHT22;26359;48.750;9.314;2023-07-13T09:29:34;23.30;94.10
40676;DHT22;26359;48.750;9.314;2023-07-13T09:32:03;23.30;95.80
40676;DHT22;26359;48.750;9.314;2023-07-13T09:34:32;23.20;95.10
40676;DHT22;26359;48.750;9.314;2023-07-13T09:36:58;23.00;95.40
40676;DHT22;26359;48.750;9.314;2023-07-13T09:39:30;23.00;95.00
40676;DHT22;26359;48.750;9.314;2023-07-13T09:42:16;23.10;94.80
40676;DHT22;26359;48.750;9.314;2023-07-13T09:45:00;23.20;96.10
40676;DHT22;26359;48.750;9.314;2023-07-13T09:47:29;23.30;95.20
40676;DHT22;26359;48.750;9.314;2023-07-13T09:50:00;23.40;94.70
40676;DHT22;26359;48.750;9.314;2023-07-13T09:52:27;23.30;94.70
40676;DHT22;26359;48.750;9.314;2023-07-13T09:54:54;23.30;94.80
40676;DHT22;26359;48.750;9.314;2023-07-13T09:57:26;23.30;95.20
40676;DHT22;26359;48.750;9.314;2023-07-13T09:59:54;23.50;96.10
40676;DHT22;26359;48.750;9.314;2023-07-13T10:02:31;23.60;95.40
40676;DHT22;26359;48.750;9.314;2023-07-13T10:05:06;23.60;94.20
40676;DHT22;26359;48.750;9.314;2023-07-13T10:07:38;23.50;93.90
40676;DHT22;26359;48.750;9.314;2023-07-13T10:10:18;23.60;95.70
40676;DHT22;26359;48.750;9.314;2023-07-13T10:12:46;23.80;94.40
40676;DHT22;26359;48.750;9.314;2023-07-13T10:15:24;24.00;94.00
40676;DHT22;26359;48.750;9.314;2023-07-13T10:17:55;24.00;93.90
40676;DHT22;26359;48.750;9.314;2023-07-13T10:20:24;24.20;93.10
40676;DHT22;26359;48.750;9.314;2023-07-13T10:22:54;24.00;93.10
40676;DHT22;26359;48.750;9.314;2023-07-13T10:25:25;24.00;93.10
40676;DHT22;26359;48.750;9.314;2023-07-13T10:27:53;23.90;94.50
40676;DHT22;26359;48.750;9.314;2023-07-13T10:30:23;24.00;93.40
40676;DHT22;26359;48.750;9.314;2023-07-13T10:32:53;24.00;94.20
40676;DHT22;26359;48.750;9.314;2023-07-13T10:35:21;24.10;94.10
40676;DHT22;26359;48.750;9.314;2023-07-13T10:38:01;24.20;92.90
40676;DHT22;26359;48.750;9.314;2023-07-13T10:40:58;24.30;94.00
40676;DHT22;26359;48.750;9.314;2023-07-13T10:43:34;24.20;92.40
40676;DHT22;26359;48.750;9.314;2023-07-13T10:46:04;24.20;92.20
40676;DHT22;26359;48.750;9.314;2023-07-13T10:48:31;24.10;92.20
40676;DHT22;26359;48.750;9.314;2023-07-13T10:50:59;24.10;93.00
40676;DHT22;26359;48.750;9.314;2023-07-13T10:53:35;24.20;93.40
40676;DHT22;26359;48.750;9.314;2023-07-13T10:56:16;24.40;92.60
40676;DHT22;26359;48.750;9.314;2023-07-13T10:58:45;24.40;92.50
40676;DHT22;26359;48.750;9.314;2023-07-13T11:01:14;24.50;92.50
40676;DHT22;26359;48.750;9.314;2023-07-13T11:08:56;24.30;92.80
40676;DHT22;26359;48.750;9.314;2023-07-13T11:14:00;24.50;94.60
40676;DHT22;26359;48.750;9.314;2023-07-13T11:16:44;24.80;93.90
40676;DHT22;26359;48.750;9.314;2023-07-13T11:27:38;25.80;92.10
40676;DHT22;26359;48.750;9.314;2023-07-13T11:30:13;26.00;92.70
40676;DHT22;26359;48.750;9.314;2023-07-13T11:32:43;26.20;90.90
40676;DHT22;26359;48.750;9.314;2023-07-13T11:35:15;26.10;91.30
40676;DHT22;26359;48.750;9.314;2023-07-13T11:37:41;26.10;92.20
40676;DHT22;26359;48.750;9.314;2023-07-13T11:40:13;25.90;91.90
40676;DHT22;26359;48.750;9.314;2023-07-13T11:42:39;26.10;93.20
40676;DHT22;26359;48.750;9.314;2023-07-13T11:45:19;26.20;90.30
40676;DHT22;26359;48.750;9.314;2023-07-13T11:47:48;26.20;90.40
40676;DHT22;26359;48.750;9.314;2023-07-13T11:50:23;26.30;90.00
40676;DHT22;26359;48.750;9.314;2023-07-13T11:52:50;26.40;89.50
40676;DHT22;26359;48.750;9.314;2023-07-13T11:55:20;25.90;90.80
40676;DHT22;26359;48.750;9.314;2023-07-13T11:58:07;25.60;90.20
40676;DHT22;26359;48.750;9.314;2023-07-13T12:00:35;25.30;91.30
40676;DHT22;26359;48.750;9.314;2023-07-13T12:03:05;25.20;91.30
40676;DHT22;26359;48.750;9.314;2023-07-13T12:05:31;25.30;91.90
40676;DHT22;26359;48.750;9.314;2023-07-13T12:07:58;25.30;91.70
40676;DHT22;26359;48.750;9.314;2023-07-13T12:10:29;25.20;91.20
40676;DHT22;26359;48.750;9.314;2023-07-13T12:13:04;25.10;90.70
40676;DHT22;26359;48.750;9.314;2023-07-13T12:15:37;25.00;90.60
40676;DHT22;26359;48.750;9.314;2023-07-13T12:18:09;24.90;91.90
40676;DHT22;26359;48.750;9.314;2023-07-13T12:20:38;25.00;91.90
40676;DHT22;26359;48.750;9.314;2023-07-13T12:25:53;25.50;92.60
40676;DHT22;26359;48.750;9.314;2023-07-13T12:28:38;25.90;91.70
40676;DHT22;26359;48.750;9.314;2023-07-13T12:31:19;26.20;91.00
40676;DHT22;26359;48.750;9.314;2023-07-13T12:33:47;26.40;90.00
40676;DHT22;26359;48.750;9.314;2023-07-13T12:36:14;26.50;88.50
40676;DHT22;26359;48.750;9.314;2023-07-13T12:38:41;26.20;90.30
40676;DHT22;26359;48.750;9.314;2023-07-13T12:41:08;26.20;92.00
40676;DHT22;26359;48.750;9.314;2023-07-13T12:43:36;26.50;87.90
40676;DHT22;26359;48.750;9.314;2023-07-13T12:46:05;26.70;86.70
40676;DHT22;26359;48.750;9.314;2023-07-13T12:48:41;27.00;88.70
40676;DHT22;26359;48.750;9.314;2023-07-13T12:51:10;26.90;89.00
40676;DHT22;26359;48.750;9.314;2023-07-13T12:53:41;26.90;88.90
40676;DHT22;26359;48.750;9.314;2023-07-13T12:56:11;27.10;90.40
40676;DHT22;26359;48.750;9.314;2023-07-13T12:58:41;27.50;90.20
40676;DHT22;26359;48.750;9.314;2023-07-13T13:01:10;27.80;88.50
40676;DHT22;26359;48.750;9.314;2023-07-13T13:03:46;27.90;87.10
40676;DHT22;26359;48.750;9.314;2023-07-13T13:08:53;27.20;86.00
40676;DHT22;26359;48.750;9.314;2023-07-13T13:11:19;26.90;86.80
40676;DHT22;26359;48.750;9.314;2023-07-13T13:13:46;26.80;87.60
40676;DHT22;26359;48.750;9.314;2023-07-13T13:16:16;27.00;89.80
40676;DHT22;26359;48.750;9.314;2023-07-13T13:18:43;27.30;90.00
40676;DHT22;26359;48.750;9.314;2023-07-13T13:21:10;27.70;86.30
40676;DHT22;26359;48.750;9.314;2023-07-13T13:23:35;28.00;83.80
40676;DHT22;26359;48.750;9.314;2023-07-13T13:26:01;28.00;81.00
40676;DHT22;26359;48.750;9.314;2023-07-13T13:28:27;28.00;84.80
40676;DHT22;26359;48.750;9.314;2023-07-13T13:30:53;28.10;84.80
40676;DHT22;26359;48.750;9.314;2023-07-13T13:33:20;27.90;83.20
40676;DHT22;26359;48.750;9.314;2023-07-13T13:35:47;27.60;85.00
40676;DHT22;26359;48.750;9.314;2023-07-13T13:38:14;27.30;83.50
40676;DHT22;26359;48.750;9.314;2023-07-13T13:40:42;26.80;82.80
40676;DHT22;26359;48.750;9.314;2023-07-13T13:43:17;26.70;86.40
40676;DHT22;26359;48.750;9.314;2023-07-13T13:45:45;26.70;84.40
40676;DHT22;26359;48.750;9.314;2023-07-13T13:48:17;26.50;83.90
40676;DHT22;26359;48.750;9.314;2023-07-13T13:50:43;26.50;88.50
40676;DHT22;26359;48.750;9.314;2023-07-13T13:53:11;26.80;85.00
40676;DHT22;26359;48.750;9.314;2023-07-13T13:55:38;27.00;82.70
40676;DHT22;26359;48.750;9.314;2023-07-13T13:58:04;27.00;84.30
40676;DHT22;26359;48.750;9.314;2023-07-13T14:00:29;27.20;82.20
40676;DHT22;26359;48.750;9.314;2023-07-13T14:02:55;27.40;82.30
40676;DHT22;26359;48.750;9.314;2023-07-13T14:05:24;27.60;81.90
40676;DHT22;26359;48.750;9.314;2023-07-13T14:07:54;27.80;82.50
40676;DHT22;26359;48.750;9.314;2023-07-13T14:10:20;28.10;82.40
40676;DHT22;26359;48.750;9.314;2023-07-13T14:12:51;28.50;80.80
40676;DHT22;26359;48.750;9.314;2023-07-13T14:15:28;28.70;82.80
40676;DHT22;26359;48.750;9.314;2023-07-13T14:17:56;28.90;78.50
40676;DHT22;26359;48.750;9.314;2023-07-13T14:20:24;29.00;81.60
40676;DHT22;26359;48.750;9.314;2023-07-13T14:22:53;29.10;78.30
40676;DHT22;26359;48.750;9.314;2023-07-13T14:25:20;29.30;79.10
40676;DHT22;26359;48.750;9.314;2023-07-13T14:27:49;29.40;75.80
40676;DHT22;26359;48.750;9.314;2023-07-13T14:30:19;29.70;77.00
40676;DHT22;26359;48.750;9.314;2023-07-13T14:32:45;29.60;77.50
40676;DHT22;26359;48.750;9.314;2023-07-13T14:35:16;29.20;75.90
40676;DHT22;26359;48.750;9.314;2023-07-13T14:37:42;28.90;75.30
40676;DHT22;26359;48.750;9.314;2023-07-13T14:40:16;28.80;76.20
40676;DHT22;26359;48.750;9.314;2023-07-13T14:42:43;28.30;76.10
40676;DHT22;26359;48.750;9.314;2023-07-13T14:45:16;28.30;81.60
40676;DHT22;26359;48.750;9.314;2023-07-13T14:47:42;28.20;77.40
40676;DHT22;26359;48.750;9.314;2023-07-13T14:50:16;28.10;78.10
40676;DHT22;26359;48.750;9.314;2023-07-13T14:52:43;28.00;77.90
40676;DHT22;26359;48.750;9.314;2023-07-13T14:55:13;27.60;77.90
40676;DHT22;26359;48.750;9.314;2023-07-13T14:57:39;27.10;78.50
40676;DHT22;26359;48.750;9.314;2023-07-13T15:00:16;26.70;80.00
40676;DHT22;26359;48.750;9.314;2023-07-13T15:02:45;26.80;79.70
40676;DHT22;26359;48.750;9.314;2023-07-13T15:05:21;26.80;80.40
40676;DHT22;26359;48.750;9.314;2023-07-13T15:07:48;26.70;81.30
40676;DHT22;26359;48.750;9.314;2023-07-13T15:10:20;26.70;79.40
40676;DHT22;26359;48.750;9.314;2023-07-13T15:12:47;26.50;80.90
40676;DHT22;26359;48.750;9.314;2023-07-13T15:15:13;26.40;82.90
40676;DHT22;26359;48.750;9.314;2023-07-13T15:17:41;26.20;81.70
40676;DHT22;26359;48.750;9.314;2023-07-13T15:22:48;25.80;81.30
40676;DHT22;26359;48.750;9.314;2023-07-13T15:25:25;25.80;81.80
40676;DHT22;26359;48.750;9.314;2023-07-13T15:27:53;26.10;81.30
40676;DHT22;26359;48.750;9.314;2023-07-13T15:30:19;26.10;83.30
40676;DHT22;26359;48.750;9.314;2023-07-13T15:32:46;26.20;81.20
40676;DHT22;26359;48.750;9.314;2023-07-13T15:35:16;26.30;82.00
40676;DHT22;26359;48.750;9.314;2023-07-13T15:37:43;26.50;82.20
40676;DHT22;26359;48.750;9.314;2023-07-13T15:40:10;26.60;84.30
40676;DHT22;26359;48.750;9.314;2023-07-13T15:42:35;26.70;81.90
40676;DHT22;26359;48.750;9.314;2023-07-13T15:45:04;26.80;81.60
40676;DHT22;26359;48.750;9.314;2023-07-13T15:47:31;26.70;83.30
40676;DHT22;26359;48.750;9.314;2023-07-13T15:49:57;26.70;80.70
40676;DHT22;26359;48.750;9.314;2023-07-13T15:52:24;26.50;80.70
40676;DHT22;26359;48.750;9.314;2023-07-13T15:54:49;26.40;81.20
40676;DHT22;26359;48.750;9.314;2023-07-13T15:57:16;26.10;81.20
40676;DHT22;26359;48.750;9.314;2023-07-13T15:59:42;26.10;81.60
40676;DHT22;26359;48.750;9.314;2023-07-13T16:02:18;26.00;82.30
40676;DHT22;26359;48.750;9.314;2023-07-13T16:04:45;26.20;82.00
40676;DHT22;26359;48.750;9.314;2023-07-13T16:07:14;26.30;81.90
40676;DHT22;26359;48.750;9.314;2023-07-13T16:09:41;26.50;80.60
40676;DHT22;26359;48.750;9.314;2023-07-13T16:12:11;26.50;80.00
40676;DHT22;26359;48.750;9.314;2023-07-13T16:14:37;26.60;80.10